createdAt,value
2019-05-15T00:02:38.537Z,66.52
2019-05-15T00:07:41.440Z,66.82
2019-05-15T00:12:44.824Z,67.12
2019-05-15T00:17:48.962Z,67.22
2019-05-15T00:22:52.344Z,67.50
2019-05-15T00:27:58.158Z,67.50
2019-05-15T00:33:00.832Z,67.57
2019-05-15T00:38:04.250Z,67.60
2019-05-15T00:43:08.863Z,67.55
2019-05-15T00:48:12.721Z,67.64
2019-05-15T00:53:16.111Z,68.00
2019-05-15T00:58:20.122Z,67.98
2019-05-15T01:03:23.588Z,67.93
2019-05-15T01:08:28.518Z,67.98
2019-05-15T01:13:32.268Z,68.01
2019-05-15T01:18:35.703Z,68.09
2019-05-15T01:23:39.269Z,68.27
2019-05-15T01:28:42.651Z,68.35
2019-05-15T01:33:47.991Z,68.54
2019-05-15T01:38:51.144Z,68.63
2019-05-15T01:43:54.531Z,68.71
2019-05-15T01:48:58.594Z,68.79
2019-05-15T01:54:02.036Z,68.81
2019-05-15T01:59:05.420Z,68.89
2019-05-15T02:04:09.178Z,68.86
2019-05-15T02:09:12.807Z,68.85
2019-05-15T02:14:18.805Z,68.92
2019-05-15T02:19:21.529Z,69.14
2019-05-15T02:24:25.188Z,69.05
2019-05-15T02:29:28.808Z,68.99
2019-05-15T02:34:32.162Z,68.75
2019-05-15T02:39:38.601Z,68.79
2019-05-15T02:44:41.110Z,69.00
2019-05-15T02:49:44.490Z,68.88
2019-05-15T02:54:49.793Z,68.74
2019-05-15T02:59:52.999Z,68.45
2019-05-15T03:04:59.439Z,68.49
2019-05-15T03:10:02.166Z,68.36
2019-05-15T03:15:09.206Z,68.07
2019-05-15T03:20:11.519Z,67.77
2019-05-15T03:25:15.374Z,67.79
2019-05-15T03:30:21.877Z,67.34
2019-05-15T03:35:24.194Z,67.25
2019-05-15T03:40:29.931Z,67.15
2019-05-15T03:45:32.643Z,66.89
2019-05-15T03:50:36.033Z,66.98
2019-05-15T03:55:40.692Z,67.21
2019-05-15T04:00:44.260Z,67.29
2019-05-15T04:05:49.449Z,67.08
2019-05-15T04:10:52.888Z,67.10
2019-05-15T04:15:59.130Z,66.92
2019-05-15T04:21:01.486Z,66.92
2019-05-15T04:26:09.340Z,67.05
2019-05-15T04:31:11.654Z,67.00
2019-05-15T04:36:15.296Z,67.11
2019-05-15T04:41:19.739Z,66.89
2019-05-15T04:46:23.465Z,67.03
2019-05-15T04:51:30.127Z,66.50
2019-05-15T04:56:31.964Z,66.26
2019-05-15T05:01:35.589Z,66.30
2019-05-15T05:06:39.210Z,65.48
2019-05-15T05:11:42.601Z,64.74
2019-05-15T05:16:48.676Z,64.45
2019-05-15T05:21:51.103Z,64.17
2019-05-15T05:26:54.738Z,64.33
2019-05-15T05:31:58.602Z,63.41
2019-05-15T05:37:02.012Z,63.50
2019-05-15T05:42:07.781Z,63.32
2019-05-15T05:47:10.514Z,62.78
2019-05-15T05:52:14.137Z,62.04
2019-05-15T05:57:19.317Z,61.52
2019-05-15T06:02:22.648Z,60.92
2019-05-15T06:07:27.942Z,59.91
2019-05-15T06:12:31.157Z,60.22
2019-05-15T06:17:34.548Z,60.39
2019-05-15T06:22:38.796Z,60.82
2019-05-15T06:27:42.326Z,59.55
2019-05-15T06:33:03.869Z,59.13
2019-05-15T06:37:50.874Z,58.61
2019-05-15T06:42:54.495Z,58.14
2019-05-15T06:47:59.865Z,57.83
2019-05-15T06:53:03.021Z,58.09
2019-05-15T06:58:09.060Z,57.57
2019-05-15T07:03:21.418Z,56.60
2019-05-15T07:08:18.144Z,56.20
2019-05-15T07:13:21.988Z,55.04
2019-05-15T07:18:25.408Z,55.88
2019-05-15T07:23:30.689Z,55.82
2019-05-15T07:28:33.936Z,55.06
2019-05-15T07:33:43.327Z,54.61
2019-05-15T07:38:42.442Z,53.33
2019-05-15T07:43:46.061Z,52.81
2019-05-15T07:48:49.690Z,54.22
2019-05-15T07:53:53.097Z,53.02
2019-05-15T07:58:58.637Z,54.45
2019-05-15T08:04:21.789Z,54.40
2019-05-15T08:09:08.525Z,52.25
2019-05-15T08:14:12.012Z,52.38
2019-05-15T08:19:15.428Z,50.88
2019-05-15T08:24:19.167Z,52.04
2019-05-15T08:29:22.513Z,50.86
2019-05-15T08:34:28.116Z,49.33
2019-05-15T08:39:31.032Z,49.47
2019-05-15T08:44:34.577Z,50.75
2019-05-15T08:49:40.983Z,48.72
2019-05-15T08:54:43.354Z,48.38
2019-05-15T08:59:48.861Z,47.87
2019-05-15T09:04:52.113Z,48.22
2019-05-15T09:09:57.936Z,48.19
2019-05-15T09:15:00.618Z,47.80
2019-05-15T09:20:08.146Z,47.93
2019-05-15T09:25:11.864Z,46.58
2019-05-15T09:30:18.087Z,46.55
2019-05-15T09:35:20.975Z,45.11
2019-05-15T09:40:37.920Z,44.39
2019-05-15T09:45:29.481Z,44.98
2019-05-15T09:50:32.873Z,44.28
2019-05-15T09:55:38.158Z,44.60
2019-05-15T10:00:41.718Z,42.67
2019-05-15T10:05:45.316Z,44.16
2019-05-15T10:10:48.977Z,43.60
2019-05-15T10:15:52.376Z,42.67
2019-05-15T10:20:57.602Z,41.23
2019-05-15T10:26:00.897Z,42.21
2019-05-15T10:31:04.549Z,42.40
2019-05-15T10:36:08.468Z,41.91
2019-05-15T10:41:15.164Z,43.05
2019-05-15T10:46:19.006Z,43.18
2019-05-15T10:51:22.571Z,41.83
2019-05-15T10:56:25.965Z,43.86
2019-05-15T11:01:29.424Z,42.41
2019-05-15T11:06:32.817Z,42.10
2019-05-15T11:11:36.282Z,41.76
2019-05-15T11:16:39.674Z,43.42
2019-05-15T11:21:43.793Z,42.18
2019-05-15T11:26:50.003Z,41.95
2019-05-15T11:31:52.343Z,41.74
2019-05-15T11:36:55.737Z,41.26
2019-05-15T11:41:59.409Z,40.25
2019-05-15T11:47:05.710Z,42.42
2019-05-15T11:52:09.341Z,41.77
2019-05-15T11:57:12.968Z,40.82
2019-05-15T12:02:18.903Z,40.65
2019-05-15T12:07:21.808Z,41.21
2019-05-15T12:12:28.971Z,42.96
2019-05-15T12:17:30.323Z,42.21
2019-05-15T12:22:34.137Z,41.08
2019-05-15T12:27:40.101Z,41.45
2019-05-15T12:32:42.982Z,42.70
2019-05-15T12:37:46.373Z,42.35
2019-05-15T13:03:10.297Z,42.92
2019-05-15T13:08:13.700Z,43.95
2019-05-15T13:13:18.708Z,42.33
2019-05-15T13:18:22.392Z,42.20
2019-05-15T13:23:28.311Z,42.58
2019-05-15T13:28:30.898Z,43.98
2019-05-15T13:33:34.288Z,43.85
2019-05-15T13:38:38.197Z,43.73
2019-05-15T13:43:41.651Z,43.99
2019-05-15T13:48:45.133Z,43.67
2019-05-15T13:53:49.129Z,43.71
2019-05-15T13:58:52.829Z,42.85
2019-05-15T14:03:58.635Z,43.22
2019-05-15T14:09:01.341Z,43.42
2019-05-15T14:14:05.405Z,43.92
2019-05-15T14:19:08.802Z,43.19
2019-05-15T14:24:12.195Z,43.39
2019-05-15T14:29:15.587Z,43.88
2019-05-15T14:34:18.977Z,43.90
2019-05-15T14:39:22.370Z,44.81
2019-05-15T14:44:25.783Z,43.93
2019-05-15T14:49:34.455Z,43.87
2019-05-15T14:54:34.285Z,43.94
2019-05-15T14:59:38.151Z,45.70
2019-05-15T15:04:41.662Z,46.42
2019-05-15T15:09:45.052Z,46.29
2019-05-15T15:14:48.670Z,47.16
2019-05-15T15:19:52.896Z,47.03
2019-05-15T15:24:59.637Z,46.23
2019-05-15T15:30:01.665Z,47.29
2019-05-15T15:35:08.575Z,47.22
2019-05-15T15:40:11.849Z,46.61
2019-05-15T15:45:15.829Z,46.72
2019-05-15T15:50:19.556Z,46.39
2019-05-15T15:55:22.950Z,45.74
2019-05-15T16:00:28.713Z,46.22
2019-05-15T16:05:31.457Z,46.99
2019-05-15T16:10:34.855Z,46.40
2019-05-15T16:15:38.714Z,46.43
2019-05-15T16:20:42.087Z,46.07
2019-05-15T16:25:45.794Z,47.03
2019-05-15T16:30:51.507Z,46.81
2019-05-15T16:35:54.741Z,47.51
2019-05-15T16:40:58.460Z,46.75
2019-05-15T16:46:01.876Z,47.16
2019-05-15T16:51:05.338Z,46.78
2019-05-15T16:56:08.904Z,47.62
2019-05-15T17:01:12.528Z,47.58
2019-05-15T17:06:18.460Z,47.67
2019-05-15T17:11:21.274Z,48.42
2019-05-15T17:16:24.666Z,48.08
2019-05-15T17:21:28.569Z,48.82
2019-05-15T17:26:31.934Z,48.65
2019-05-15T17:31:35.325Z,48.82
2019-05-15T17:36:38.717Z,49.16
2019-05-15T17:41:42.349Z,49.15
2019-05-15T17:46:45.747Z,48.74
2019-05-15T17:51:49.136Z,49.00
2019-05-15T17:56:52.597Z,49.82
2019-05-15T18:01:56.168Z,49.41
2019-05-15T18:06:59.569Z,49.61
2019-05-15T18:12:02.957Z,49.29
2019-05-15T18:17:08.589Z,50.08
2019-05-15T18:22:11.468Z,50.17
2019-05-15T18:27:14.879Z,50.28
2019-05-15T18:32:18.921Z,51.23
2019-05-15T18:37:22.375Z,51.68
2019-05-15T18:42:25.946Z,52.06
2019-05-15T18:47:31.387Z,51.80
2019-05-15T18:52:34.838Z,53.21
2019-05-15T18:57:38.753Z,53.37
2019-05-15T19:02:42.450Z,53.78
2019-05-15T19:07:48.552Z,53.44
2019-05-15T19:12:51.458Z,53.10
2019-05-15T19:17:54.846Z,53.12
2019-05-15T19:22:58.973Z,52.95
2019-05-15T19:28:02.511Z,52.94
2019-05-15T19:33:07.861Z,53.04
2019-05-15T19:38:11.015Z,53.17
2019-05-15T19:43:14.412Z,53.93
2019-05-15T19:48:20.172Z,54.48
2019-05-15T19:53:23.248Z,54.88
2019-05-15T19:58:28.558Z,54.90
2019-05-15T20:03:31.749Z,54.72
2019-05-15T20:08:35.224Z,54.75
2019-05-15T20:13:38.617Z,55.07
2019-05-15T20:18:42.009Z,54.94
2019-05-15T20:23:45.465Z,55.15
2019-05-15T20:28:49.087Z,55.15
2019-05-15T20:34:03.307Z,55.06
2019-05-15T20:38:58.774Z,55.20
2019-05-15T20:44:02.398Z,55.42
2019-05-15T20:49:05.797Z,55.71
2019-05-15T20:54:09.193Z,56.30
2019-05-15T20:59:12.594Z,56.38
2019-05-15T21:04:22.442Z,56.63
2019-05-15T21:09:21.447Z,57.11
2019-05-15T21:14:24.841Z,57.10
2019-05-15T21:19:28.233Z,57.50
2019-05-15T21:24:31.803Z,58.31
2019-05-15T21:29:35.194Z,58.88
2019-05-15T21:34:43.992Z,59.61
2019-05-15T21:39:43.696Z,60.03
2019-05-15T21:44:48.896Z,61.08
2019-05-15T21:49:52.330Z,61.40
2019-05-15T21:54:55.719Z,61.58
2019-05-15T22:00:00.685Z,61.79
2019-05-15T22:05:08.301Z,61.86
2019-05-15T22:10:11.600Z,62.17
2019-05-15T22:15:15.235Z,62.25
2019-05-15T22:20:19.254Z,62.64
2019-05-15T22:25:22.646Z,62.83
2019-05-15T22:30:30.005Z,62.82
2019-05-15T22:35:31.413Z,62.76
2019-05-15T22:40:34.776Z,62.87
2019-05-15T22:45:38.341Z,62.90
2019-05-15T22:50:41.735Z,62.99
2019-05-15T22:55:45.128Z,63.18
2019-05-15T23:00:49.089Z,63.13
2019-05-15T23:05:52.565Z,63.09
2019-05-15T23:10:58.539Z,63.25
2019-05-15T23:16:01.071Z,63.34
2019-05-15T23:21:04.460Z,63.33
2019-05-15T23:26:07.848Z,63.12
2019-05-15T23:31:11.239Z,63.34
2019-05-15T23:36:14.625Z,63.27
2019-05-15T23:41:18.872Z,63.30
2019-05-15T23:46:22.610Z,63.56
2019-05-15T23:51:27.900Z,63.72
2019-05-15T23:56:31.172Z,63.60
